Portada
METAR-TAF:

METAR-TAF

Aeroports :

Aeroport de Benguela

Benguela, Angola

latitud: 12-36-30S, longitud: 13-24-10E, altitud: 36 m

METAR: manca

Hora: 11:20 (10:20 UTC)

Pronòstic

L'informe es va fer fa 11 hores i 20 minuts, a les 23:00 UTC
Pronòstic vàlid del 30 a les 00 UTC al 30 a les 12 UTC
Vent 4 kt del Oest/Sud-Oest
Visibilitat 10 km o més
Núvols disperses a una alçada de 1500 ft
Temporalment
l' 30 a les 04 UTC al 30 a les 08 UTC
Vent 2 kt amb direcció variable
Visibilitat: 9000 m
Evolucionant progressivament
l' 30 a les 10 UTC al 30 a les 12 UTC
Vent 10 kt del Nord/Nord-Oest
Visibilitat 10 km o més
Escasses núvols a una alçada de 1800 ft
Cel ennuvolat a una alçada de 2500 ft

TAF: FNBG 292300Z 3000/3012 24004KT 9999 SCT015 TEMPO 3004/3008 VRB02KT 9000 NSC BECMG 3010/3012 33010KT 9999 FEW018 BKN025

Observacions i pronòstics meteorològics de més de 4000 aeroports (METAR i TAF).

Les estacions disponibles són els punts grocs i vermells al mapa.

Posi el ratolí al punt desitjat per veure el nom de l'estació.

Feu clic per veure les observacions i els pronòstics meteorològics.

Per canviar el mapa: feu clic els botons verds amb una creu de color negre per apropar; al botó verd amb un guió per allunyar la imatge; o en les fletxes verdes per a mapes adjacents.


METAR-TAF: